sensor_id;sensor_type;location;lat;lon;timestamp;temperature;humidity
18446;DHT22;9352;50.888;4.466;2023-02-01T00:00:26;7.80;99.90
18446;DHT22;9352;50.888;4.466;2023-02-01T00:02:53;7.80;99.90
18446;DHT22;9352;50.888;4.466;2023-02-01T00:05:20;7.70;99.90
18446;DHT22;9352;50.888;4.466;2023-02-01T00:07:48;7.80;99.90
18446;DHT22;9352;50.888;4.466;2023-02-01T00:10:16;7.70;99.90
18446;DHT22;9352;50.888;4.466;2023-02-01T00:12:43;7.70;99.90
18446;DHT22;9352;50.888;4.466;2023-02-01T00:15:10;7.70;99.90
18446;DHT22;9352;50.888;4.466;2023-02-01T00:17:37;7.70;99.90
18446;DHT22;9352;50.888;4.466;2023-02-01T00:20:05;7.60;99.90
18446;DHT22;9352;50.888;4.466;2023-02-01T00:22:33;7.70;99.90
18446;DHT22;9352;50.888;4.466;2023-02-01T00:25:02;7.60;99.90
18446;DHT22;9352;50.888;4.466;2023-02-01T00:27:29;7.60;99.90
18446;DHT22;9352;50.888;4.466;2023-02-01T00:29:56;7.60;99.90
18446;DHT22;9352;50.888;4.466;2023-02-01T00:32:23;7.60;99.90
18446;DHT22;9352;50.888;4.466;2023-02-01T00:34:49;7.70;99.90
18446;DHT22;9352;50.888;4.466;2023-02-01T00:37:16;7.70;99.90
18446;DHT22;9352;50.888;4.466;2023-02-01T00:39:43;7.70;99.90
18446;DHT22;9352;50.888;4.466;2023-02-01T00:42:11;7.70;99.90
18446;DHT22;9352;50.888;4.466;2023-02-01T00:44:38;7.70;99.90
18446;DHT22;9352;50.888;4.466;2023-02-01T00:47:05;7.70;99.90
18446;DHT22;9352;50.888;4.466;2023-02-01T00:49:32;7.70;99.90
18446;DHT22;9352;50.888;4.466;2023-02-01T00:51:59;7.70;99.90
18446;DHT22;9352;50.888;4.466;2023-02-01T00:54:26;7.70;99.90
18446;DHT22;9352;50.888;4.466;2023-02-01T00:56:53;7.80;99.90
18446;DHT22;9352;50.888;4.466;2023-02-01T00:59:22;7.70;99.90
18446;DHT22;9352;50.888;4.466;2023-02-01T01:01:48;7.70;99.90
18446;DHT22;9352;50.888;4.466;2023-02-01T01:04:15;7.70;99.90
18446;DHT22;9352;50.888;4.466;2023-02-01T01:06:42;7.70;99.90
18446;DHT22;9352;50.888;4.466;2023-02-01T01:09:09;7.80;99.90
18446;DHT22;9352;50.888;4.466;2023-02-01T01:11:37;7.70;99.90
18446;DHT22;9352;50.888;4.466;2023-02-01T01:14:06;7.70;99.90
18446;DHT22;9352;50.888;4.466;2023-02-01T01:16:34;7.70;99.90
18446;DHT22;9352;50.888;4.466;2023-02-01T01:19:01;7.70;99.90
18446;DHT22;9352;50.888;4.466;2023-02-01T01:21:29;7.80;99.90
18446;DHT22;9352;50.888;4.466;2023-02-01T01:23:56;7.80;99.90
18446;DHT22;9352;50.888;4.466;2023-02-01T01:26:25;7.80;99.90
18446;DHT22;9352;50.888;4.466;2023-02-01T01:28:54;7.80;99.90
18446;DHT22;9352;50.888;4.466;2023-02-01T01:31:21;7.80;99.90
18446;DHT22;9352;50.888;4.466;2023-02-01T01:33:51;7.70;99.90
18446;DHT22;9352;50.888;4.466;2023-02-01T01:36:18;7.70;99.90
18446;DHT22;9352;50.888;4.466;2023-02-01T01:38:45;7.70;99.90
18446;DHT22;9352;50.888;4.466;2023-02-01T01:41:15;7.70;99.90
18446;DHT22;9352;50.888;4.466;2023-02-01T01:43:48;7.70;99.90
18446;DHT22;9352;50.888;4.466;2023-02-01T01:46:16;7.70;99.90
18446;DHT22;9352;50.888;4.466;2023-02-01T01:48:44;7.70;99.90
18446;DHT22;9352;50.888;4.466;2023-02-01T01:51:14;7.70;99.90
18446;DHT22;9352;50.888;4.466;2023-02-01T01:53:48;7.70;99.90
18446;DHT22;9352;50.888;4.466;2023-02-01T01:56:17;7.70;99.90
18446;DHT22;9352;50.888;4.466;2023-02-01T01:58:44;7.70;99.90
18446;DHT22;9352;50.888;4.466;2023-02-01T02:01:11;7.70;99.90
18446;DHT22;9352;50.888;4.466;2023-02-01T02:03:41;7.60;99.90
18446;DHT22;9352;50.888;4.466;2023-02-01T02:06:15;7.60;99.90
18446;DHT22;9352;50.888;4.466;2023-02-01T02:08:43;7.60;99.90
18446;DHT22;9352;50.888;4.466;2023-02-01T02:11:12;7.60;99.90
18446;DHT22;9352;50.888;4.466;2023-02-01T02:13:46;7.50;99.90
18446;DHT22;9352;50.888;4.466;2023-02-01T02:16:35;7.40;99.90
18446;DHT22;9352;50.888;4.466;2023-02-01T02:19:22;7.30;99.90
18446;DHT22;9352;50.888;4.466;2023-02-01T02:22:18;7.20;99.90
18446;DHT22;9352;50.888;4.466;2023-02-01T02:27:46;7.20;99.90
18446;DHT22;9352;50.888;4.466;2023-02-01T02:30:42;7.10;99.90
18446;DHT22;9352;50.888;4.466;2023-02-01T02:36:19;7.10;99.90
18446;DHT22;9352;50.888;4.466;2023-02-01T02:38:52;7.20;99.90
18446;DHT22;9352;50.888;4.466;2023-02-01T02:41:26;7.20;99.90
18446;DHT22;9352;50.888;4.466;2023-02-01T02:44:17;7.20;99.90
18446;DHT22;9352;50.888;4.466;2023-02-01T02:47:13;7.30;99.90
18446;DHT22;9352;50.888;4.466;2023-02-01T02:49:56;7.30;99.90
18446;DHT22;9352;50.888;4.466;2023-02-01T02:52:47;7.30;99.90
18446;DHT22;9352;50.888;4.466;2023-02-01T02:55:33;7.20;99.90
18446;DHT22;9352;50.888;4.466;2023-02-01T02:58:03;7.10;99.90
18446;DHT22;9352;50.888;4.466;2023-02-01T03:00:49;7.10;99.90
18446;DHT22;9352;50.888;4.466;2023-02-01T03:03:36;7.10;99.90
18446;DHT22;9352;50.888;4.466;2023-02-01T03:06:24;7.10;99.90
18446;DHT22;9352;50.888;4.466;2023-02-01T03:08:51;7.00;99.90
18446;DHT22;9352;50.888;4.466;2023-02-01T03:11:20;7.00;99.90
18446;DHT22;9352;50.888;4.466;2023-02-01T03:13:51;7.00;99.90
18446;DHT22;9352;50.888;4.466;2023-02-01T03:16:20;7.00;99.90
18446;DHT22;9352;50.888;4.466;2023-02-01T03:18:56;7.00;99.90
18446;DHT22;9352;50.888;4.466;2023-02-01T03:21:29;6.90;99.90
18446;DHT22;9352;50.888;4.466;2023-02-01T03:24:01;7.00;99.90
18446;DHT22;9352;50.888;4.466;2023-02-01T03:26:30;6.90;99.90
18446;DHT22;9352;50.888;4.466;2023-02-01T03:29:04;6.90;99.90
18446;DHT22;9352;50.888;4.466;2023-02-01T03:31:34;6.90;99.90
18446;DHT22;9352;50.888;4.466;2023-02-01T03:34:01;6.80;99.90
18446;DHT22;9352;50.888;4.466;2023-02-01T03:36:33;6.80;99.90
18446;DHT22;9352;50.888;4.466;2023-02-01T03:39:04;6.80;99.90
18446;DHT22;9352;50.888;4.466;2023-02-01T03:41:37;6.90;99.90
18446;DHT22;9352;50.888;4.466;2023-02-01T03:44:12;6.90;99.90
18446;DHT22;9352;50.888;4.466;2023-02-01T03:46:43;6.90;99.90
18446;DHT22;9352;50.888;4.466;2023-02-01T03:49:18;6.80;99.90
18446;DHT22;9352;50.888;4.466;2023-02-01T03:51:49;6.80;99.90
18446;DHT22;9352;50.888;4.466;2023-02-01T03:54:18;6.80;99.90
18446;DHT22;9352;50.888;4.466;2023-02-01T03:56:46;6.80;99.90
18446;DHT22;9352;50.888;4.466;2023-02-01T03:59:14;6.80;99.90
18446;DHT22;9352;50.888;4.466;2023-02-01T04:01:41;6.70;99.90
18446;DHT22;9352;50.888;4.466;2023-02-01T04:04:08;6.70;99.90
18446;DHT22;9352;50.888;4.466;2023-02-01T04:06:35;6.70;99.90
18446;DHT22;9352;50.888;4.466;2023-02-01T04:09:04;6.70;99.90
18446;DHT22;9352;50.888;4.466;2023-02-01T04:11:31;6.60;99.90
18446;DHT22;9352;50.888;4.466;2023-02-01T04:13:57;6.60;99.90
18446;DHT22;9352;50.888;4.466;2023-02-01T04:16:29;6.60;99.90
18446;DHT22;9352;50.888;4.466;2023-02-01T04:18:56;6.50;99.90
18446;DHT22;9352;50.888;4.466;2023-02-01T04:21:24;6.50;99.90
18446;DHT22;9352;50.888;4.466;2023-02-01T04:23:51;6.50;99.90
18446;DHT22;9352;50.888;4.466;2023-02-01T04:26:20;6.40;99.90
18446;DHT22;9352;50.888;4.466;2023-02-01T04:28:47;6.40;99.90
18446;DHT22;9352;50.888;4.466;2023-02-01T04:31:14;6.40;99.90
18446;DHT22;9352;50.888;4.466;2023-02-01T04:33:41;6.40;99.90
18446;DHT22;9352;50.888;4.466;2023-02-01T04:36:09;6.40;99.90
18446;DHT22;9352;50.888;4.466;2023-02-01T04:38:36;6.30;99.90
18446;DHT22;9352;50.888;4.466;2023-02-01T04:41:03;6.30;99.90
18446;DHT22;9352;50.888;4.466;2023-02-01T04:43:31;6.30;99.90
18446;DHT22;9352;50.888;4.466;2023-02-01T04:45:58;6.30;99.90
18446;DHT22;9352;50.888;4.466;2023-02-01T04:48:25;6.30;99.90
18446;DHT22;9352;50.888;4.466;2023-02-01T04:50:53;6.20;99.90
18446;DHT22;9352;50.888;4.466;2023-02-01T04:53:20;6.20;99.90
18446;DHT22;9352;50.888;4.466;2023-02-01T04:55:48;6.20;99.90
18446;DHT22;9352;50.888;4.466;2023-02-01T04:58:15;6.20;99.90
18446;DHT22;9352;50.888;4.466;2023-02-01T05:00:43;6.20;99.90
18446;DHT22;9352;50.888;4.466;2023-02-01T05:03:10;6.10;99.90
18446;DHT22;9352;50.888;4.466;2023-02-01T05:05:37;6.10;99.90
18446;DHT22;9352;50.888;4.466;2023-02-01T05:08:04;6.10;99.90
18446;DHT22;9352;50.888;4.466;2023-02-01T05:10:31;6.10;99.90
18446;DHT22;9352;50.888;4.466;2023-02-01T05:12:58;6.10;99.90
18446;DHT22;9352;50.888;4.466;2023-02-01T05:15:44;6.10;99.90
18446;DHT22;9352;50.888;4.466;2023-02-01T05:18:11;6.00;99.90
18446;DHT22;9352;50.888;4.466;2023-02-01T05:20:38;6.00;99.90
18446;DHT22;9352;50.888;4.466;2023-02-01T05:23:05;6.00;99.90
18446;DHT22;9352;50.888;4.466;2023-02-01T05:25:32;6.00;99.90
18446;DHT22;9352;50.888;4.466;2023-02-01T05:27:59;6.00;99.90
18446;DHT22;9352;50.888;4.466;2023-02-01T05:30:26;6.00;99.90
18446;DHT22;9352;50.888;4.466;2023-02-01T05:32:54;6.00;99.90
18446;DHT22;9352;50.888;4.466;2023-02-01T05:35:21;6.00;99.90
18446;DHT22;9352;50.888;4.466;2023-02-01T05:37:48;6.00;99.90
18446;DHT22;9352;50.888;4.466;2023-02-01T05:40:15;6.00;99.90
18446;DHT22;9352;50.888;4.466;2023-02-01T05:42:42;5.90;99.90
18446;DHT22;9352;50.888;4.466;2023-02-01T05:45:10;5.90;99.90
18446;DHT22;9352;50.888;4.466;2023-02-01T05:47:37;5.90;99.90
18446;DHT22;9352;50.888;4.466;2023-02-01T05:50:06;5.90;99.90
18446;DHT22;9352;50.888;4.466;2023-02-01T05:52:33;5.90;99.90
18446;DHT22;9352;50.888;4.466;2023-02-01T05:55:00;5.80;99.90
18446;DHT22;9352;50.888;4.466;2023-02-01T05:57:27;5.80;99.90
18446;DHT22;9352;50.888;4.466;2023-02-01T05:59:55;5.70;99.90
18446;DHT22;9352;50.888;4.466;2023-02-01T06:02:22;5.70;99.90
18446;DHT22;9352;50.888;4.466;2023-02-01T06:04:49;5.60;99.90
18446;DHT22;9352;50.888;4.466;2023-02-01T06:07:18;5.60;99.90
18446;DHT22;9352;50.888;4.466;2023-02-01T06:09:45;5.60;99.90
18446;DHT22;9352;50.888;4.466;2023-02-01T06:12:12;5.60;99.90
18446;DHT22;9352;50.888;4.466;2023-02-01T06:14:39;5.60;99.90
18446;DHT22;9352;50.888;4.466;2023-02-01T06:17:06;5.60;99.90
18446;DHT22;9352;50.888;4.466;2023-02-01T06:19:33;5.60;99.90
18446;DHT22;9352;50.888;4.466;2023-02-01T06:22:00;5.60;99.90
18446;DHT22;9352;50.888;4.466;2023-02-01T06:24:29;5.60;99.90
18446;DHT22;9352;50.888;4.466;2023-02-01T06:26:56;5.60;99.90
18446;DHT22;9352;50.888;4.466;2023-02-01T06:29:23;5.50;99.90
18446;DHT22;9352;50.888;4.466;2023-02-01T06:31:49;5.50;99.90
18446;DHT22;9352;50.888;4.466;2023-02-01T06:34:17;5.50;99.90
18446;DHT22;9352;50.888;4.466;2023-02-01T06:36:44;5.50;99.90
18446;DHT22;9352;50.888;4.466;2023-02-01T06:39:10;5.50;99.90
18446;DHT22;9352;50.888;4.466;2023-02-01T06:41:42;5.50;99.90
18446;DHT22;9352;50.888;4.466;2023-02-01T06:44:09;5.60;99.90
18446;DHT22;9352;50.888;4.466;2023-02-01T06:46:36;5.60;99.90
18446;DHT22;9352;50.888;4.466;2023-02-01T06:49:03;5.50;99.90
18446;DHT22;9352;50.888;4.466;2023-02-01T06:51:30;5.60;99.90
18446;DHT22;9352;50.888;4.466;2023-02-01T06:53:57;5.60;99.90
18446;DHT22;9352;50.888;4.466;2023-02-01T06:56:24;5.60;99.90
18446;DHT22;9352;50.888;4.466;2023-02-01T06:58:53;5.60;99.90
18446;DHT22;9352;50.888;4.466;2023-02-01T07:01:20;5.60;99.90
18446;DHT22;9352;50.888;4.466;2023-02-01T07:03:48;5.60;99.90
18446;DHT22;9352;50.888;4.466;2023-02-01T07:06:16;5.60;99.90
18446;DHT22;9352;50.888;4.466;2023-02-01T07:08:44;5.60;99.90
18446;DHT22;9352;50.888;4.466;2023-02-01T07:11:12;5.60;99.90
18446;DHT22;9352;50.888;4.466;2023-02-01T07:13:40;5.70;99.90
18446;DHT22;9352;50.888;4.466;2023-02-01T07:16:11;5.70;99.90
18446;DHT22;9352;50.888;4.466;2023-02-01T07:18:38;5.60;99.90
18446;DHT22;9352;50.888;4.466;2023-02-01T07:21:05;5.60;99.90
18446;DHT22;9352;50.888;4.466;2023-02-01T07:23:32;5.70;99.90
18446;DHT22;9352;50.888;4.466;2023-02-01T07:26:02;5.70;99.90
18446;DHT22;9352;50.888;4.466;2023-02-01T07:28:31;5.70;99.90
18446;DHT22;9352;50.888;4.466;2023-02-01T07:31:02;5.70;99.90
18446;DHT22;9352;50.888;4.466;2023-02-01T07:33:31;5.70;99.90
18446;DHT22;9352;50.888;4.466;2023-02-01T07:36:00;5.70;99.90
18446;DHT22;9352;50.888;4.466;2023-02-01T07:38:27;5.80;99.90
18446;DHT22;9352;50.888;4.466;2023-02-01T07:40:57;5.80;99.90
18446;DHT22;9352;50.888;4.466;2023-02-01T07:43:24;5.80;99.90
18446;DHT22;9352;50.888;4.466;2023-02-01T07:45:52;5.80;99.90
18446;DHT22;9352;50.888;4.466;2023-02-01T07:48:19;5.80;99.90
18446;DHT22;9352;50.888;4.466;2023-02-01T07:50:47;5.90;99.90
18446;DHT22;9352;50.888;4.466;2023-02-01T07:53:14;5.90;99.90
18446;DHT22;9352;50.888;4.466;2023-02-01T07:55:42;5.90;99.90
18446;DHT22;9352;50.888;4.466;2023-02-01T07:58:08;6.00;99.90
18446;DHT22;9352;50.888;4.466;2023-02-01T08:00:35;6.10;99.90
18446;DHT22;9352;50.888;4.466;2023-02-01T08:03:19;6.10;99.90
18446;DHT22;9352;50.888;4.466;2023-02-01T08:05:48;6.20;99.90
18446;DHT22;9352;50.888;4.466;2023-02-01T08:08:15;6.20;99.90
18446;DHT22;9352;50.888;4.466;2023-02-01T08:10:42;6.30;99.90
18446;DHT22;9352;50.888;4.466;2023-02-01T08:13:09;6.40;99.90
18446;DHT22;9352;50.888;4.466;2023-02-01T08:15:35;6.40;99.90
18446;DHT22;9352;50.888;4.466;2023-02-01T08:18:03;6.50;99.90
18446;DHT22;9352;50.888;4.466;2023-02-01T08:20:30;6.50;99.90
18446;DHT22;9352;50.888;4.466;2023-02-01T08:23:01;6.50;99.90
18446;DHT22;9352;50.888;4.466;2023-02-01T08:25:28;6.50;99.90
18446;DHT22;9352;50.888;4.466;2023-02-01T08:27:55;6.50;99.90
18446;DHT22;9352;50.888;4.466;2023-02-01T08:30:21;6.50;99.90
18446;DHT22;9352;50.888;4.466;2023-02-01T08:32:48;6.50;99.90
18446;DHT22;9352;50.888;4.466;2023-02-01T08:35:15;6.60;99.90
18446;DHT22;9352;50.888;4.466;2023-02-01T08:37:42;6.60;99.90
18446;DHT22;9352;50.888;4.466;2023-02-01T08:40:11;6.60;99.90
18446;DHT22;9352;50.888;4.466;2023-02-01T08:42:39;6.70;99.90
18446;DHT22;9352;50.888;4.466;2023-02-01T08:45:18;6.70;99.90
18446;DHT22;9352;50.888;4.466;2023-02-01T08:47:45;6.80;99.90
18446;DHT22;9352;50.888;4.466;2023-02-01T08:50:13;6.80;99.90
18446;DHT22;9352;50.888;4.466;2023-02-01T08:52:40;6.80;99.90
18446;DHT22;9352;50.888;4.466;2023-02-01T08:55:08;6.90;99.90
18446;DHT22;9352;50.888;4.466;2023-02-01T08:57:37;6.90;99.90
18446;DHT22;9352;50.888;4.466;2023-02-01T09:00:05;6.90;99.90
18446;DHT22;9352;50.888;4.466;2023-02-01T09:02:33;6.90;99.90
18446;DHT22;9352;50.888;4.466;2023-02-01T09:05:00;6.90;99.90
18446;DHT22;9352;50.888;4.466;2023-02-01T09:07:26;6.90;99.90
18446;DHT22;9352;50.888;4.466;2023-02-01T09:09:53;7.00;99.90
18446;DHT22;9352;50.888;4.466;2023-02-01T09:12:21;7.00;99.90
18446;DHT22;9352;50.888;4.466;2023-02-01T09:14:50;7.00;99.90
18446;DHT22;9352;50.888;4.466;2023-02-01T09:17:17;7.10;99.90
18446;DHT22;9352;50.888;4.466;2023-02-01T09:19:44;7.20;99.90
18446;DHT22;9352;50.888;4.466;2023-02-01T09:22:11;7.20;99.90
18446;DHT22;9352;50.888;4.466;2023-02-01T09:24:39;7.20;99.90
18446;DHT22;9352;50.888;4.466;2023-02-01T09:27:05;7.20;99.90
18446;DHT22;9352;50.888;4.466;2023-02-01T09:29:32;7.30;99.90
18446;DHT22;9352;50.888;4.466;2023-02-01T09:32:01;7.30;99.90
18446;DHT22;9352;50.888;4.466;2023-02-01T09:34:28;7.40;99.90
18446;DHT22;9352;50.888;4.466;2023-02-01T09:36:55;7.40;99.90
18446;DHT22;9352;50.888;4.466;2023-02-01T09:39:22;7.40;99.90
18446;DHT22;9352;50.888;4.466;2023-02-01T09:41:57;7.50;99.90
18446;DHT22;9352;50.888;4.466;2023-02-01T09:47:27;7.50;99.90
18446;DHT22;9352;50.888;4.466;2023-02-01T09:50:03;7.60;99.90
18446;DHT22;9352;50.888;4.466;2023-02-01T09:52:36;7.70;99.90
18446;DHT22;9352;50.888;4.466;2023-02-01T09:55:10;7.70;99.90
18446;DHT22;9352;50.888;4.466;2023-02-01T09:57:45;7.70;99.90
18446;DHT22;9352;50.888;4.466;2023-02-01T10:00:17;7.80;99.90
18446;DHT22;9352;50.888;4.466;2023-02-01T10:02:49;7.80;99.90
18446;DHT22;9352;50.888;4.466;2023-02-01T10:05:20;7.90;99.90
18446;DHT22;9352;50.888;4.466;2023-02-01T10:07:59;7.90;99.90
18446;DHT22;9352;50.888;4.466;2023-02-01T10:10:33;8.00;99.90
18446;DHT22;9352;50.888;4.466;2023-02-01T10:13:21;8.30;99.90
18446;DHT22;9352;50.888;4.466;2023-02-01T10:15:57;8.50;99.90
18446;DHT22;9352;50.888;4.466;2023-02-01T10:21:42;8.80;99.90
18446;DHT22;9352;50.888;4.466;2023-02-01T10:24:37;8.80;99.90
18446;DHT22;9352;50.888;4.466;2023-02-01T10:27:13;8.80;99.90
18446;DHT22;9352;50.888;4.466;2023-02-01T10:29:43;8.70;99.90
18446;DHT22;9352;50.888;4.466;2023-02-01T10:32:16;8.70;99.90
18446;DHT22;9352;50.888;4.466;2023-02-01T10:34:47;8.80;99.90
18446;DHT22;9352;50.888;4.466;2023-02-01T10:37:23;8.90;99.90
18446;DHT22;9352;50.888;4.466;2023-02-01T10:39:53;9.10;99.90
18446;DHT22;9352;50.888;4.466;2023-02-01T10:42:25;9.10;99.90
18446;DHT22;9352;50.888;4.466;2023-02-01T10:44:53;9.30;99.90
18446;DHT22;9352;50.888;4.466;2023-02-01T10:47:21;9.40;99.90
18446;DHT22;9352;50.888;4.466;2023-02-01T10:49:55;9.40;99.90
18446;DHT22;9352;50.888;4.466;2023-02-01T10:52:33;9.60;99.90
18446;DHT22;9352;50.888;4.466;2023-02-01T10:55:30;9.70;99.90
18446;DHT22;9352;50.888;4.466;2023-02-01T10:57:59;10.30;99.90
18446;DHT22;9352;50.888;4.466;2023-02-01T11:00:27;10.80;99.90
18446;DHT22;9352;50.888;4.466;2023-02-01T11:02:54;10.90;99.90
18446;DHT22;9352;50.888;4.466;2023-02-01T11:05:24;10.70;99.90
18446;DHT22;9352;50.888;4.466;2023-02-01T11:07:54;10.70;99.90
18446;DHT22;9352;50.888;4.466;2023-02-01T11:10:38;10.60;99.90
18446;DHT22;9352;50.888;4.466;2023-02-01T11:13:13;10.50;99.90
18446;DHT22;9352;50.888;4.466;2023-02-01T11:15:44;10.80;99.90
18446;DHT22;9352;50.888;4.466;2023-02-01T11:18:17;10.80;99.90
18446;DHT22;9352;50.888;4.466;2023-02-01T11:20:47;10.90;99.90
18446;DHT22;9352;50.888;4.466;2023-02-01T11:23:20;10.90;99.90
18446;DHT22;9352;50.888;4.466;2023-02-01T11:25:50;11.00;99.90
18446;DHT22;9352;50.888;4.466;2023-02-01T11:28:21;10.90;99.90
18446;DHT22;9352;50.888;4.466;2023-02-01T11:30:51;10.80;99.90
18446;DHT22;9352;50.888;4.466;2023-02-01T11:33:24;10.80;99.90
18446;DHT22;9352;50.888;4.466;2023-02-01T11:35:57;10.70;99.90
18446;DHT22;9352;50.888;4.466;2023-02-01T11:38:28;10.60;99.90
18446;DHT22;9352;50.888;4.466;2023-02-01T11:40:57;10.40;99.90
18446;DHT22;9352;50.888;4.466;2023-02-01T11:43:37;10.30;99.90
18446;DHT22;9352;50.888;4.466;2023-02-01T11:46:17;10.20;99.90
18446;DHT22;9352;50.888;4.466;2023-02-01T11:48:48;10.10;99.90
18446;DHT22;9352;50.888;4.466;2023-02-01T12:02:03;10.00;99.90
18446;DHT22;9352;50.888;4.466;2023-02-01T12:04:54;10.90;99.90
18446;DHT22;9352;50.888;4.466;2023-02-01T12:07:27;11.10;99.90
18446;DHT22;9352;50.888;4.466;2023-02-01T12:10:05;11.00;99.90
18446;DHT22;9352;50.888;4.466;2023-02-01T12:12:42;11.00;99.90
18446;DHT22;9352;50.888;4.466;2023-02-01T12:15:26;11.00;99.90
18446;DHT22;9352;50.888;4.466;2023-02-01T12:21:13;11.20;99.90
18446;DHT22;9352;50.888;4.466;2023-02-01T12:24:20;11.10;99.90
18446;DHT22;9352;50.888;4.466;2023-02-01T12:27:01;11.30;99.90
18446;DHT22;9352;50.888;4.466;2023-02-01T12:29:53;11.60;99.90
18446;DHT22;9352;50.888;4.466;2023-02-01T12:32:38;11.80;99.90
18446;DHT22;9352;50.888;4.466;2023-02-01T12:35:20;12.10;99.90
18446;DHT22;9352;50.888;4.466;2023-02-01T12:38:12;12.10;99.90
18446;DHT22;9352;50.888;4.466;2023-02-01T12:41:01;11.80;99.90
18446;DHT22;9352;50.888;4.466;2023-02-01T12:43:38;12.00;99.90
18446;DHT22;9352;50.888;4.466;2023-02-01T12:46:09;12.10;99.90
18446;DHT22;9352;50.888;4.466;2023-02-01T12:48:46;11.90;99.90
18446;DHT22;9352;50.888;4.466;2023-02-01T12:51:18;12.00;99.90
18446;DHT22;9352;50.888;4.466;2023-02-01T12:53:51;11.80;99.90
18446;DHT22;9352;50.888;4.466;2023-02-01T12:56:23;11.70;99.90
18446;DHT22;9352;50.888;4.466;2023-02-01T12:58:54;11.80;99.90
18446;DHT22;9352;50.888;4.466;2023-02-01T13:01:29;11.80;99.90
18446;DHT22;9352;50.888;4.466;2023-02-01T13:04:03;11.90;99.90
18446;DHT22;9352;50.888;4.466;2023-02-01T13:06:39;11.80;99.90
18446;DHT22;9352;50.888;4.466;2023-02-01T13:09:23;11.60;99.90
18446;DHT22;9352;50.888;4.466;2023-02-01T13:11:54;12.00;99.90
18446;DHT22;9352;50.888;4.466;2023-02-01T13:14:29;12.40;99.90
18446;DHT22;9352;50.888;4.466;2023-02-01T13:17:01;12.40;99.90
18446;DHT22;9352;50.888;4.466;2023-02-01T13:19:33;12.00;99.90
18446;DHT22;9352;50.888;4.466;2023-02-01T13:22:09;11.80;99.90
18446;DHT22;9352;50.888;4.466;2023-02-01T13:24:40;11.70;99.90
18446;DHT22;9352;50.888;4.466;2023-02-01T13:27:12;12.00;99.90
18446;DHT22;9352;50.888;4.466;2023-02-01T13:29:47;12.10;99.90
18446;DHT22;9352;50.888;4.466;2023-02-01T13:32:37;12.20;99.90
18446;DHT22;9352;50.888;4.466;2023-02-01T13:38:18;11.70;99.90
18446;DHT22;9352;50.888;4.466;2023-02-01T13:40:51;12.00;99.90
18446;DHT22;9352;50.888;4.466;2023-02-01T13:43:26;11.80;99.90
18446;DHT22;9352;50.888;4.466;2023-02-01T13:45:56;12.00;99.90
18446;DHT22;9352;50.888;4.466;2023-02-01T13:48:26;12.00;99.90
18446;DHT22;9352;50.888;4.466;2023-02-01T13:50:56;12.10;99.90
18446;DHT22;9352;50.888;4.466;2023-02-01T13:53:29;12.00;99.90
18446;DHT22;9352;50.888;4.466;2023-02-01T13:55:59;11.80;99.90
18446;DHT22;9352;50.888;4.466;2023-02-01T13:58:33;11.60;99.90
18446;DHT22;9352;50.888;4.466;2023-02-01T14:01:34;11.60;99.90
18446;DHT22;9352;50.888;4.466;2023-02-01T14:04:04;11.60;99.90
18446;DHT22;9352;50.888;4.466;2023-02-01T14:06:44;11.70;99.90
18446;DHT22;9352;50.888;4.466;2023-02-01T14:09:16;11.70;99.90
18446;DHT22;9352;50.888;4.466;2023-02-01T14:11:47;11.70;99.90
18446;DHT22;9352;50.888;4.466;2023-02-01T14:14:45;11.60;99.90
18446;DHT22;9352;50.888;4.466;2023-02-01T14:17:30;11.50;99.90
18446;DHT22;9352;50.888;4.466;2023-02-01T14:23:23;11.30;99.90
18446;DHT22;9352;50.888;4.466;2023-02-01T14:26:22;11.20;99.90
18446;DHT22;9352;50.888;4.466;2023-02-01T14:29:02;11.10;99.90
18446;DHT22;9352;50.888;4.466;2023-02-01T14:31:52;11.00;99.90
18446;DHT22;9352;50.888;4.466;2023-02-01T14:34:26;10.90;99.90
18446;DHT22;9352;50.888;4.466;2023-02-01T14:36:57;10.80;99.90
18446;DHT22;9352;50.888;4.466;2023-02-01T14:39:36;10.70;99.90
18446;DHT22;9352;50.888;4.466;2023-02-01T14:42:18;10.60;99.90
18446;DHT22;9352;50.888;4.466;2023-02-01T14:44:47;10.60;99.90
18446;DHT22;9352;50.888;4.466;2023-02-01T14:47:30;10.60;99.90
18446;DHT22;9352;50.888;4.466;2023-02-01T14:52:45;10.50;99.90
18446;DHT22;9352;50.888;4.466;2023-02-01T14:55:16;10.50;99.90
18446;DHT22;9352;50.888;4.466;2023-02-01T14:57:49;10.50;99.90
18446;DHT22;9352;50.888;4.466;2023-02-01T15:00:23;10.50;99.90
18446;DHT22;9352;50.888;4.466;2023-02-01T15:02:51;10.40;99.90
18446;DHT22;9352;50.888;4.466;2023-02-01T15:05:36;10.40;99.90
18446;DHT22;9352;50.888;4.466;2023-02-01T15:08:07;10.40;99.90
18446;DHT22;9352;50.888;4.466;2023-02-01T15:10:42;10.40;99.90
18446;DHT22;9352;50.888;4.466;2023-02-01T15:13:21;10.40;99.90
18446;DHT22;9352;50.888;4.466;2023-02-01T15:16:03;10.30;99.90
18446;DHT22;9352;50.888;4.466;2023-02-01T15:18:31;10.30;99.90
18446;DHT22;9352;50.888;4.466;2023-02-01T15:20:59;10.30;99.90
18446;DHT22;9352;50.888;4.466;2023-02-01T15:23:27;10.20;99.90
18446;DHT22;9352;50.888;4.466;2023-02-01T15:25:54;10.20;99.90
18446;DHT22;9352;50.888;4.466;2023-02-01T15:28:23;10.20;99.90
18446;DHT22;9352;50.888;4.466;2023-02-01T15:30:58;10.20;99.90
18446;DHT22;9352;50.888;4.466;2023-02-01T15:33:27;10.20;99.90
18446;DHT22;9352;50.888;4.466;2023-02-01T15:35:55;10.20;99.90
18446;DHT22;9352;50.888;4.466;2023-02-01T15:38:37;10.10;99.90
18446;DHT22;9352;50.888;4.466;2023-02-01T15:41:07;10.10;99.90
18446;DHT22;9352;50.888;4.466;2023-02-01T15:43:38;10.00;99.90
18446;DHT22;9352;50.888;4.466;2023-02-01T15:46:11;10.00;99.90
18446;DHT22;9352;50.888;4.466;2023-02-01T15:48:42;10.00;99.90
18446;DHT22;9352;50.888;4.466;2023-02-01T15:51:18;9.90;99.90
18446;DHT22;9352;50.888;4.466;2023-02-01T15:53:51;9.90;99.90
18446;DHT22;9352;50.888;4.466;2023-02-01T15:56:24;10.00;99.90
18446;DHT22;9352;50.888;4.466;2023-02-01T15:58:55;9.90;99.90
18446;DHT22;9352;50.888;4.466;2023-02-01T16:01:23;9.90;99.90
18446;DHT22;9352;50.888;4.466;2023-02-01T16:04:13;9.90;99.90
18446;DHT22;9352;50.888;4.466;2023-02-01T16:06:47;9.90;99.90
18446;DHT22;9352;50.888;4.466;2023-02-01T16:09:16;9.80;99.90
18446;DHT22;9352;50.888;4.466;2023-02-01T16:11:55;9.80;99.90
18446;DHT22;9352;50.888;4.466;2023-02-01T16:14:23;9.80;99.90
18446;DHT22;9352;50.888;4.466;2023-02-01T16:16:51;9.80;99.90
18446;DHT22;9352;50.888;4.466;2023-02-01T16:19:19;9.80;99.90
18446;DHT22;9352;50.888;4.466;2023-02-01T16:21:46;9.80;99.90
18446;DHT22;9352;50.888;4.466;2023-02-01T16:24:13;9.70;99.90
18446;DHT22;9352;50.888;4.466;2023-02-01T16:26:40;9.70;99.90
18446;DHT22;9352;50.888;4.466;2023-02-01T16:29:08;9.70;99.90
18446;DHT22;9352;50.888;4.466;2023-02-01T16:31:38;9.70;99.90
18446;DHT22;9352;50.888;4.466;2023-02-01T16:34:06;9.70;99.90
18446;DHT22;9352;50.888;4.466;2023-02-01T16:36:33;9.70;99.90
18446;DHT22;9352;50.888;4.466;2023-02-01T16:39:00;9.70;99.90
18446;DHT22;9352;50.888;4.466;2023-02-01T16:41:28;9.70;99.90
18446;DHT22;9352;50.888;4.466;2023-02-01T16:43:55;9.70;99.90
18446;DHT22;9352;50.888;4.466;2023-02-01T16:46:25;9.60;99.90
18446;DHT22;9352;50.888;4.466;2023-02-01T16:48:56;9.70;99.90
18446;DHT22;9352;50.888;4.466;2023-02-01T16:51:25;9.60;99.90
18446;DHT22;9352;50.888;4.466;2023-02-01T16:53:52;9.70;99.90
18446;DHT22;9352;50.888;4.466;2023-02-01T16:56:21;9.60;99.90
18446;DHT22;9352;50.888;4.466;2023-02-01T16:58:48;9.60;99.90